CST,Max TemperatureF,Mean TemperatureF,Min TemperatureF,Max Dew PointF,MeanDew PointF,Min DewpointF,Max Humidity, Mean Humidity, Min Humidity, Max Sea Level PressureIn, Mean Sea Level PressureIn, Min Sea Level PressureIn, Max VisibilityMiles, Mean VisibilityMiles, Min VisibilityMiles, Max Wind SpeedMPH, Mean Wind SpeedMPH, Max Gust SpeedMPH,PrecipitationIn, CloudCover, Events, WindDirDegrees
2014-2-1,32,28,24,31,26,21,100,94,88,30.19,29.94,29.76,7,3,1,18,10,23,0.59,8,Rain-Snow-Thunderstorm,12
2014-2-2,24,15,5,21,11,2,88,78,67,30.38,30.32,30.17,10,9,2,18,9,24,T,2,Snow,357
2014-2-3,28,15,2,20,10,-3,92,80,68,30.43,30.36,30.30,10,10,10,10,5,12,0.00,0,,59
2014-2-4,23,21,18,20,18,13,92,85,77,30.31,30.12,29.97,10,3,0,20,13,24,0.37,8,Fog-Snow,55
2014-2-5,18,10,2,14,7,-4,88,77,66,30.66,30.35,30.02,10,6,1,25,14,30,0.11,6,Snow,323
2014-2-6,11,4,-4,-4,-6,-9,79,66,52,30.68,30.60,30.53,10,10,10,13,6,15,0.00,2,,295
2014-2-7,16,6,-5,9,-1,-8,87,70,53,30.52,30.43,30.25,10,9,2,9,4,12,0.01,7,Snow,144
2014-2-8,28,21,14,23,17,9,88,80,71,30.28,30.19,30.11,10,9,2,12,5,13,0.01,8,Snow,163
2014-2-9,26,20,13,23,15,2,92,73,53,30.42,30.27,30.16,10,6,1,17,9,21,0.06,8,Snow,360
2014-2-10,15,9,2,3,-3,-8,72,62,51,30.54,30.49,30.42,10,10,10,17,8,21,0.00,1,,18
2014-2-11,21,7,-7,1,-4,-10,82,62,42,30.56,30.46,30.32,10,10,10,12,5,14,0.00,0,,61
2014-2-12,39,23,6,11,3,-3,69,48,26,30.31,30.15,30.01,10,10,10,10,4,12,0.00,1,,147
2014-2-13,42,29,15,30,22,8,82,68,53,29.99,29.86,29.76,10,10,9,22,9,25,0.00,0,,239
2014-2-14,36,26,16,30,20,8,92,80,67,30.14,29.85,29.60,10,8,3,24,12,28,T,6,Rain,339
2014-2-15,34,21,8,25,13,5,84,71,58,30.15,30.06,29.96,10,10,10,20,7,24,T,4,Snow,185
2014-2-16,33,30,27,26,24,23,85,77,69,30.24,30.14,30.04,10,10,7,18,10,23,0.00,5,,50
2014-2-17,46,38,30,34,29,24,96,75,53,30.04,29.92,29.80,10,7,4,28,13,37,0.14,5,Rain,181
2014-2-18,62,48,34,33,28,23,64,46,27,30.02,29.86,29.73,10,10,10,30,14,37,0.00,0,,210
2014-2-19,52,43,34,36,32,29,82,66,50,30.04,29.89,29.66,10,10,10,18,9,24,0.07,3,Rain-Thunderstorm,159
2014-2-20,72,54,35,57,41,21,86,74,61,29.74,29.53,29.22,10,10,9,49,19,59,T,6,Rain-Thunderstorm,214
2014-2-21,57,44,30,23,18,15,56,38,20,29.95,29.88,29.75,10,10,10,41,15,49,T,1,,253
2014-2-22,55,42,29,34,25,19,75,53,30,30.07,29.97,29.89,10,10,10,18,8,22,T,4,Rain,24
2014-2-23,36,30,23,22,16,12,72,58,44,30.36,30.26,30.07,10,10,10,21,11,26,0.00,5,,22
2014-2-24,37,29,20,18,15,12,84,61,37,30.41,30.31,30.22,10,10,10,16,7,19,0.00,4,,51
2014-2-25,29,23,16,20,14,2,84,67,50,30.41,30.32,30.25,10,9,2,21,12,26,T,6,Snow,360
2014-2-26,26,16,6,12,2,-5,69,52,35,30.41,30.22,29.99,10,10,10,23,12,27,0.00,1,,284
2014-2-27,29,23,16,14,2,-11,71,44,17,30.19,30.09,29.99,10,10,10,20,10,24,0.00,0,,17
2014-2-28,50,34,18,28,12,1,59,42,24,30.05,29.97,29.88,10,10,10,23,12,27,0.00,2,,152